ABQ703 OPSD-OPIS
Flight info
| Callsign | ABQ703 |
|---|---|
| Flight time | 0h 51m |
| Altitude | 32000 |
| Route | BIREB DCT DELDA DCT KAPMI DCT BOBAM |
| Aircraft | A320/M-SDE3FGHIRWY/LB1 |
Departure
| Time | 2026-04-20 23:28 |
|---|---|
| Airport | Skardu International Airport (OPSD) |
Arrival
| Time | 2026-04-21 00:20 |
|---|---|
| Airport | Islamabad International Airport (OPIS) |
| Time | Latitude | Longitude | Altitude | Speed | Heading |
|---|---|---|---|---|---|
| 2026-04-20 23:06 | 35.33069 | 75.54092 | 7339 ft | 0 kts | 147° |
| 2026-04-20 23:21 | 35.33061 | 75.54098 | 7338 ft | 4 kts | 147° |
| 2026-04-20 23:21 | 35.33064 | 75.54140 | 7335 ft | 8 kts | 27° |
| 2026-04-20 23:21 | 35.33123 | 75.54115 | 7335 ft | 7 kts | 2° |
| 2026-04-20 23:22 | 35.33161 | 75.54179 | 7335 ft | 12 kts | 57° |
| 2026-04-20 23:22 | 35.33218 | 75.54286 | 7332 ft | 17 kts | 57° |
| 2026-04-20 23:22 | 35.33295 | 75.54357 | 7332 ft | 10 kts | 333° |
| 2026-04-20 23:22 | 35.33363 | 75.54294 | 7332 ft | 15 kts | 328° |
| 2026-04-20 23:23 | 35.33468 | 75.54210 | 7332 ft | 21 kts | 326° |
| 2026-04-20 23:23 | 35.33603 | 75.54097 | 7330 ft | 26 kts | 326° |
| 2026-04-20 23:23 | 35.33768 | 75.53968 | 7330 ft | 30 kts | 327° |
| 2026-04-20 23:23 | 35.33953 | 75.53816 | 7330 ft | 33 kts | 326° |
| 2026-04-20 23:24 | 35.34139 | 75.53670 | 7331 ft | 32 kts | 328° |
| 2026-04-20 23:24 | 35.34325 | 75.53531 | 7332 ft | 31 kts | 327° |
| 2026-04-20 23:24 | 35.34506 | 75.53386 | 7332 ft | 31 kts | 327° |
| 2026-04-20 23:24 | 35.34687 | 75.53241 | 7332 ft | 31 kts | 327° |
| 2026-04-20 23:25 | 35.34866 | 75.53098 | 7332 ft | 31 kts | 327° |
| 2026-04-20 23:25 | 35.35028 | 75.52972 | 7334 ft | 27 kts | 327° |
| 2026-04-20 23:25 | 35.35117 | 75.52843 | 7334 ft | 11 kts | 304° |
| 2026-04-20 23:25 | 35.35168 | 75.52802 | 7334 ft | 6 kts | 24° |
| 2026-04-20 23:26 | 35.35184 | 75.52834 | 7334 ft | 4 kts | 88° |
| 2026-04-20 23:26 | 35.35177 | 75.52855 | 7334 ft | 2 kts | 130° |
| 2026-04-20 23:26 | 35.35170 | 75.52863 | 7334 ft | 1 kts | 139° |
| 2026-04-20 23:26 | 35.35169 | 75.52863 | 7334 ft | 0 kts | 145° |
| 2026-04-20 23:27 | 35.35167 | 75.52864 | 7334 ft | 2 kts | 149° |
| 2026-04-20 23:27 | 35.35045 | 75.52959 | 7334 ft | 54 kts | 147° |
| 2026-04-20 23:27 | 35.34529 | 75.53367 | 7333 ft | 119 kts | 147° |
| 2026-04-20 23:28 | 35.33682 | 75.54040 | 7336 ft | 169 kts | 147° |
| 2026-04-20 23:28 | 35.32658 | 75.54859 | 7761 ft | 179 kts | 147° |
| 2026-04-20 23:28 | 35.31604 | 75.55701 | 8385 ft | 181 kts | 146° |
| 2026-04-20 23:28 | 35.30562 | 75.56551 | 9086 ft | 175 kts | 147° |
| 2026-04-20 23:29 | 35.29545 | 75.57429 | 9510 ft | 185 kts | 136° |
| 2026-04-20 23:29 | 35.28799 | 75.58728 | 9946 ft | 192 kts | 111° |
| 2026-04-20 23:29 | 35.28454 | 75.60351 | 10303 ft | 203 kts | 95° |
| 2026-04-20 23:29 | 35.28465 | 75.62103 | 10744 ft | 208 kts | 83° |
| 2026-04-20 23:30 | 35.28630 | 75.63844 | 11334 ft | 205 kts | 82° |
| 2026-04-20 23:30 | 35.28785 | 75.65592 | 11735 ft | 210 kts | 83° |
| 2026-04-20 23:30 | 35.28920 | 75.67367 | 12136 ft | 214 kts | 85° |
| 2026-04-20 23:30 | 35.29044 | 75.69207 | 12638 ft | 217 kts | 84° |
| 2026-04-20 23:31 | 35.29298 | 75.71021 | 13194 ft | 217 kts | 73° |
| 2026-04-20 23:31 | 35.30013 | 75.72646 | 13614 ft | 224 kts | 45° |
| 2026-04-20 23:31 | 35.31273 | 75.73715 | 14148 ft | 219 kts | 19° |
| 2026-04-20 23:31 | 35.32744 | 75.74153 | 14614 ft | 219 kts | 8° |
| 2026-04-20 23:32 | 35.34254 | 75.74518 | 15029 ft | 223 kts | 9° |
| 2026-04-20 23:32 | 35.35760 | 75.74891 | 15568 ft | 220 kts | 9° |
| 2026-04-20 23:32 | 35.37271 | 75.75248 | 16019 ft | 224 kts | 8° |
| 2026-04-20 23:32 | 35.38833 | 75.75598 | 16355 ft | 233 kts | 8° |
| 2026-04-20 23:33 | 35.40471 | 75.75939 | 16699 ft | 241 kts | 6° |
| 2026-04-20 23:33 | 35.42103 | 75.75996 | 17416 ft | 231 kts | 351° |
| 2026-04-20 23:33 | 35.43638 | 75.75543 | 18028 ft | 224 kts | 337° |
| 2026-04-20 23:33 | 35.45021 | 75.74724 | 18594 ft | 219 kts | 327° |
| 2026-04-20 23:34 | 35.46281 | 75.73691 | 19046 ft | 217 kts | 321° |
| 2026-04-20 23:34 | 35.47481 | 75.72571 | 19493 ft | 216 kts | 319° |
| 2026-04-20 23:34 | 35.48654 | 75.71412 | 19880 ft | 219 kts | 317° |
| 2026-04-20 23:34 | 35.49841 | 75.70210 | 20262 ft | 220 kts | 317° |
| 2026-04-20 23:35 | 35.50620 | 75.69420 | 20610 ft | 218 kts | 317° |
| 2026-04-20 23:35 | 35.52983 | 75.67082 | 21444 ft | 221 kts | 316° |
| 2026-04-20 23:35 | 35.54159 | 75.65853 | 21850 ft | 222 kts | 314° |
| 2026-04-20 23:36 | 35.55310 | 75.64597 | 22291 ft | 222 kts | 313° |
| 2026-04-20 23:36 | 35.56487 | 75.63297 | 22463 ft | 236 kts | 313° |
| 2026-04-20 23:36 | 35.57739 | 75.61852 | 22496 ft | 258 kts | 311° |
| 2026-04-20 23:36 | 35.59062 | 75.60238 | 22631 ft | 279 kts | 311° |
| 2026-04-20 23:37 | 35.60452 | 75.58510 | 22991 ft | 291 kts | 310° |
| 2026-04-20 23:37 | 35.61882 | 75.56703 | 23537 ft | 294 kts | 309° |
| 2026-04-20 23:37 | 35.63246 | 75.54858 | 24278 ft | 289 kts | 304° |
| 2026-04-20 23:37 | 35.64268 | 75.52699 | 24494 ft | 300 kts | 286° |
| 2026-04-20 23:38 | 35.64660 | 75.50117 | 24615 ft | 316 kts | 277° |
| 2026-04-20 23:38 | 35.64947 | 75.47370 | 24729 ft | 332 kts | 277° |
| 2026-04-20 23:38 | 35.65231 | 75.44494 | 24834 ft | 345 kts | 277° |
| 2026-04-20 23:38 | 35.65517 | 75.41516 | 24952 ft | 358 kts | 277° |
| 2026-04-20 23:39 | 35.65812 | 75.38424 | 25143 ft | 369 kts | 276° |
| 2026-04-20 23:39 | 35.66116 | 75.35263 | 25477 ft | 375 kts | 277° |
| 2026-04-20 23:39 | 35.66429 | 75.32060 | 25970 ft | 378 kts | 277° |
| 2026-04-20 23:39 | 35.66747 | 75.28846 | 26463 ft | 380 kts | 277° |
| 2026-04-20 23:40 | 35.67072 | 75.25609 | 26901 ft | 383 kts | 277° |
| 2026-04-20 23:40 | 35.67398 | 75.22349 | 27299 ft | 386 kts | 277° |
| 2026-04-20 23:40 | 35.67724 | 75.19074 | 27723 ft | 387 kts | 277° |
| 2026-04-20 23:40 | 35.68049 | 75.15785 | 28087 ft | 389 kts | 277° |
| 2026-04-20 23:41 | 35.68370 | 75.12493 | 28160 ft | 381 kts | 277° |
| 2026-04-20 23:41 | 35.68676 | 75.09333 | 28167 ft | 363 kts | 277° |
| 2026-04-20 23:41 | 35.68967 | 75.06328 | 28151 ft | 356 kts | 276° |
| 2026-04-20 23:42 | 35.69542 | 75.00298 | 28146 ft | 355 kts | 276° |
| 2026-04-20 23:42 | 35.70118 | 74.94272 | 28165 ft | 355 kts | 277° |
| 2026-04-20 23:43 | 35.70693 | 74.88249 | 28164 ft | 354 kts | 277° |
| 2026-04-20 23:43 | 35.71255 | 74.82226 | 28165 ft | 354 kts | 275° |
| 2026-04-20 23:43 | 35.71214 | 74.79204 | 28158 ft | 354 kts | 263° |
| 2026-04-20 23:44 | 35.70651 | 74.76251 | 28121 ft | 356 kts | 252° |
| 2026-04-20 23:44 | 35.68441 | 74.70756 | 28108 ft | 359 kts | 245° |
| 2026-04-20 23:45 | 35.66124 | 74.65306 | 28109 ft | 360 kts | 245° |
| 2026-04-20 23:45 | 35.63814 | 74.59853 | 28076 ft | 360 kts | 247° |
| 2026-04-20 23:46 | 35.61488 | 74.54386 | 28078 ft | 360 kts | 245° |
| 2026-04-20 23:46 | 35.59164 | 74.48961 | 28055 ft | 358 kts | 245° |
| 2026-04-20 23:47 | 35.56835 | 74.43532 | 28057 ft | 360 kts | 245° |
| 2026-04-20 23:47 | 35.54504 | 74.38097 | 28060 ft | 359 kts | 245° |
| 2026-04-20 23:48 | 35.52174 | 74.32671 | 28043 ft | 360 kts | 245° |
| 2026-04-20 23:48 | 35.49838 | 74.27237 | 28069 ft | 360 kts | 245° |
| 2026-04-20 23:49 | 35.47499 | 74.21805 | 28069 ft | 360 kts | 245° |
| 2026-04-20 23:49 | 35.45156 | 74.16385 | 28066 ft | 361 kts | 245° |
| 2026-04-20 23:50 | 35.42800 | 74.10953 | 28064 ft | 361 kts | 245° |
| 2026-04-20 23:50 | 35.39806 | 74.05991 | 28059 ft | 368 kts | 229° |
| 2026-04-20 23:51 | 35.36168 | 74.01577 | 28088 ft | 368 kts | 229° |
| 2026-04-20 23:51 | 35.32527 | 73.97168 | 28071 ft | 368 kts | 229° |
| 2026-04-20 23:52 | 35.28896 | 73.92761 | 28074 ft | 368 kts | 230° |
| 2026-04-20 23:52 | 35.25261 | 73.88353 | 28084 ft | 369 kts | 229° |
| 2026-04-20 23:53 | 35.21598 | 73.83926 | 28095 ft | 371 kts | 229° |
| 2026-04-20 23:53 | 35.17933 | 73.79503 | 28086 ft | 370 kts | 229° |
| 2026-04-20 23:54 | 35.14273 | 73.75095 | 28123 ft | 370 kts | 229° |
| 2026-04-20 23:54 | 35.10623 | 73.70695 | 28123 ft | 371 kts | 229° |
| 2026-04-20 23:55 | 35.06950 | 73.66275 | 28129 ft | 372 kts | 229° |
| 2026-04-20 23:55 | 35.03259 | 73.61843 | 28116 ft | 373 kts | 228° |
| 2026-04-20 23:56 | 34.99561 | 73.57401 | 28137 ft | 373 kts | 229° |
| 2026-04-20 23:56 | 34.95862 | 73.52965 | 28144 ft | 373 kts | 229° |
| 2026-04-20 23:57 | 34.92149 | 73.48532 | 28124 ft | 374 kts | 229° |
| 2026-04-20 23:57 | 34.88442 | 73.44097 | 28111 ft | 373 kts | 229° |
| 2026-04-20 23:58 | 34.84743 | 73.39669 | 28085 ft | 373 kts | 228° |
| 2026-04-20 23:58 | 34.81052 | 73.35262 | 28059 ft | 373 kts | 228° |
| 2026-04-20 23:59 | 34.77336 | 73.30838 | 28052 ft | 374 kts | 228° |
| 2026-04-20 23:59 | 34.73614 | 73.26419 | 28046 ft | 374 kts | 228° |
| 2026-04-21 00:00 | 34.69897 | 73.22007 | 28008 ft | 373 kts | 228° |
| 2026-04-21 00:00 | 34.68037 | 73.19800 | 27994 ft | 374 kts | 228° |
| 2026-04-21 00:00 | 34.66180 | 73.17595 | 27984 ft | 373 kts | 228° |
| 2026-04-21 00:00 | 34.64322 | 73.15393 | 27982 ft | 373 kts | 228° |
| 2026-04-21 00:01 | 34.62466 | 73.13200 | 27983 ft | 373 kts | 228° |
| 2026-04-21 00:01 | 34.60594 | 73.11018 | 27982 ft | 374 kts | 225° |
| 2026-04-21 00:01 | 34.58463 | 73.09174 | 27983 ft | 380 kts | 213° |
| 2026-04-21 00:01 | 34.56030 | 73.07887 | 27948 ft | 386 kts | 201° |
| 2026-04-21 00:02 | 34.53387 | 73.07183 | 27918 ft | 389 kts | 194° |
| 2026-04-21 00:02 | 34.50698 | 73.06605 | 27942 ft | 397 kts | 194° |
| 2026-04-21 00:02 | 34.47967 | 73.06004 | 27882 ft | 408 kts | 194° |
| 2026-04-21 00:02 | 34.45180 | 73.05388 | 27333 ft | 408 kts | 194° |
| 2026-04-21 00:03 | 34.42396 | 73.04773 | 26761 ft | 406 kts | 194° |
| 2026-04-21 00:03 | 34.39628 | 73.04164 | 26248 ft | 403 kts | 194° |
| 2026-04-21 00:03 | 34.36881 | 73.03561 | 25743 ft | 400 kts | 194° |
| 2026-04-21 00:03 | 34.34156 | 73.02962 | 25247 ft | 396 kts | 194° |
| 2026-04-21 00:04 | 34.31451 | 73.02368 | 24755 ft | 393 kts | 194° |
| 2026-04-21 00:04 | 34.28765 | 73.01781 | 24273 ft | 391 kts | 194° |
| 2026-04-21 00:04 | 34.26099 | 73.01198 | 23801 ft | 388 kts | 194° |
| 2026-04-21 00:04 | 34.23451 | 73.00616 | 23327 ft | 385 kts | 194° |
| 2026-04-21 00:05 | 34.20823 | 73.00036 | 22805 ft | 383 kts | 194° |
| 2026-04-21 00:05 | 34.18220 | 72.99463 | 22287 ft | 380 kts | 194° |
| 2026-04-21 00:05 | 34.15628 | 72.98894 | 21798 ft | 377 kts | 194° |
| 2026-04-21 00:05 | 34.13051 | 72.98330 | 21310 ft | 375 kts | 194° |
| 2026-04-21 00:06 | 34.10494 | 72.97772 | 20846 ft | 372 kts | 194° |
| 2026-04-21 00:06 | 34.07957 | 72.97218 | 20391 ft | 369 kts | 193° |
| 2026-04-21 00:06 | 34.05433 | 72.96669 | 19926 ft | 367 kts | 193° |
| 2026-04-21 00:06 | 34.02931 | 72.96125 | 19459 ft | 365 kts | 193° |
| 2026-04-21 00:07 | 34.00441 | 72.95584 | 19010 ft | 363 kts | 193° |
| 2026-04-21 00:07 | 33.97964 | 72.95044 | 18557 ft | 361 kts | 193° |
| 2026-04-21 00:07 | 33.95506 | 72.94508 | 18140 ft | 359 kts | 193° |
| 2026-04-21 00:07 | 33.93057 | 72.93975 | 17667 ft | 356 kts | 192° |
| 2026-04-21 00:08 | 33.90627 | 72.93445 | 17229 ft | 353 kts | 192° |
| 2026-04-21 00:08 | 33.88216 | 72.92920 | 16802 ft | 350 kts | 192° |
| 2026-04-21 00:08 | 33.85823 | 72.92400 | 16388 ft | 348 kts | 192° |
| 2026-04-21 00:08 | 33.83455 | 72.91885 | 15991 ft | 345 kts | 192° |
| 2026-04-21 00:09 | 33.81099 | 72.91372 | 15602 ft | 343 kts | 192° |
| 2026-04-21 00:09 | 33.78762 | 72.90863 | 15219 ft | 340 kts | 192° |
| 2026-04-21 00:09 | 33.76444 | 72.90362 | 14830 ft | 337 kts | 193° |
| 2026-04-21 00:09 | 33.74166 | 72.89871 | 14208 ft | 330 kts | 192° |
| 2026-04-21 00:10 | 33.71919 | 72.89387 | 13458 ft | 326 kts | 192° |
| 2026-04-21 00:10 | 33.69702 | 72.88904 | 12713 ft | 321 kts | 192° |
| 2026-04-21 00:10 | 33.67555 | 72.88440 | 12329 ft | 306 kts | 192° |
| 2026-04-21 00:10 | 33.65533 | 72.88009 | 11951 ft | 292 kts | 192° |
| 2026-04-21 00:11 | 33.63574 | 72.87588 | 11590 ft | 280 kts | 191° |
| 2026-04-21 00:11 | 33.61708 | 72.87188 | 11350 ft | 268 kts | 192° |
| 2026-04-21 00:11 | 33.59869 | 72.86782 | 11043 ft | 269 kts | 188° |
| 2026-04-21 00:11 | 33.58022 | 72.86383 | 10701 ft | 270 kts | 192° |
| 2026-04-21 00:12 | 33.56154 | 72.86253 | 10326 ft | 269 kts | 175° |
| 2026-04-21 00:12 | 33.54402 | 72.86811 | 10130 ft | 255 kts | 159° |
| 2026-04-21 00:12 | 33.52950 | 72.87969 | 9772 ft | 252 kts | 136° |
| 2026-04-21 00:12 | 33.51797 | 72.89535 | 9251 ft | 250 kts | 133° |
| 2026-04-21 00:13 | 33.50673 | 72.91106 | 8761 ft | 247 kts | 132° |
| 2026-04-21 00:13 | 33.49561 | 72.92661 | 8225 ft | 245 kts | 133° |
| 2026-04-21 00:13 | 33.48452 | 72.94199 | 7700 ft | 243 kts | 131° |
| 2026-04-21 00:13 | 33.47346 | 72.95723 | 7173 ft | 242 kts | 133° |
| 2026-04-21 00:14 | 33.46242 | 72.97231 | 6679 ft | 240 kts | 133° |
| 2026-04-21 00:14 | 33.45148 | 72.98719 | 6195 ft | 237 kts | 129° |
| 2026-04-21 00:14 | 33.44467 | 73.00484 | 5692 ft | 234 kts | 97° |
| 2026-04-21 00:14 | 33.44676 | 73.02374 | 5175 ft | 231 kts | 63° |
| 2026-04-21 00:15 | 33.45700 | 73.03810 | 4673 ft | 228 kts | 30° |
| 2026-04-21 00:15 | 33.47187 | 73.04393 | 4130 ft | 226 kts | 6° |
| 2026-04-21 00:15 | 33.48735 | 73.04381 | 3740 ft | 219 kts | 353° |
| 2026-04-21 00:15 | 33.50169 | 73.03934 | 3701 ft | 209 kts | 329° |
| 2026-04-21 00:16 | 33.51306 | 73.02787 | 3773 ft | 220 kts | 304° |
| 2026-04-21 00:16 | 33.51896 | 73.01112 | 3760 ft | 221 kts | 281° |
| 2026-04-21 00:16 | 33.52182 | 72.99295 | 3765 ft | 222 kts | 281° |
| 2026-04-21 00:16 | 33.52459 | 72.97501 | 3741 ft | 217 kts | 281° |
| 2026-04-21 00:17 | 33.52731 | 72.95770 | 3551 ft | 205 kts | 281° |
| 2026-04-21 00:17 | 33.52988 | 72.94146 | 3335 ft | 194 kts | 282° |
| 2026-04-21 00:17 | 33.53228 | 72.92618 | 3077 ft | 179 kts | 283° |
| 2026-04-21 00:17 | 33.53446 | 72.91236 | 2870 ft | 157 kts | 284° |
| 2026-04-21 00:18 | 33.53638 | 72.90015 | 2694 ft | 144 kts | 283° |
| 2026-04-21 00:18 | 33.53818 | 72.88876 | 2509 ft | 136 kts | 283° |
| 2026-04-21 00:18 | 33.53995 | 72.87760 | 2341 ft | 136 kts | 283° |
| 2026-04-21 00:18 | 33.54156 | 72.86640 | 2135 ft | 134 kts | 283° |
| 2026-04-21 00:19 | 33.54334 | 72.85559 | 1981 ft | 134 kts | 283° |
| 2026-04-21 00:19 | 33.54449 | 72.84839 | 1862 ft | 133 kts | 280° |
| 2026-04-21 00:19 | 33.54619 | 72.83770 | 1765 ft | 122 kts | 278° |
| 2026-04-21 00:19 | 33.54745 | 72.82947 | 1762 ft | 76 kts | 282° |
| 2026-04-21 00:20 | 33.54813 | 72.82509 | 1755 ft | 33 kts | 281° |
| 2026-04-21 00:20 | 33.54897 | 72.82415 | 1750 ft | 14 kts | 8° |
| 2026-04-21 00:20 | 33.54994 | 72.82432 | 1753 ft | 15 kts | 10° |
| 2026-04-21 00:20 | 33.55098 | 72.82455 | 1763 ft | 14 kts | 10° |
| 2026-04-21 00:21 | 33.55200 | 72.82503 | 1768 ft | 11 kts | 60° |
| 2026-04-21 00:21 | 33.55198 | 72.82568 | 1771 ft | 14 kts | 100° |
| 2026-04-21 00:21 | 33.55174 | 72.82719 | 1768 ft | 22 kts | 101° |
| 2026-04-21 00:21 | 33.55154 | 72.82849 | 1768 ft | 14 kts | 100° |
| 2026-04-21 00:22 | 33.55157 | 72.82942 | 1770 ft | 11 kts | 59° |
| 2026-04-21 00:22 | 33.55195 | 72.83010 | 1769 ft | 9 kts | 56° |
| 2026-04-21 00:22 | 33.55228 | 72.83067 | 1769 ft | 8 kts | 56° |
| 2026-04-21 00:22 | 33.55256 | 72.83116 | 1771 ft | 7 kts | 55° |
| 2026-04-21 00:23 | 33.55283 | 72.83164 | 1770 ft | 11 kts | 56° |
| 2026-04-21 00:23 | 33.55335 | 72.83257 | 1770 ft | 11 kts | 56° |
| 2026-04-21 00:23 | 33.55359 | 72.83328 | 1770 ft | 7 kts | 95° |
| 2026-04-21 00:23 | 33.55378 | 72.83344 | 1773 ft | 3 kts | 21° |
| 2026-04-21 00:24 | 33.55394 | 72.83346 | 1770 ft | 3 kts | 8° |
| 2026-04-21 00:24 | 33.55448 | 72.83358 | 1771 ft | 5 kts | 11° |
| 2026-04-21 00:24 | 33.55452 | 72.83359 | 1770 ft | 0 kts | 10° |